createdAt,value
2018-04-23T00:00:00.217Z,0
2018-04-23T00:01:08.288Z,0
2018-04-23T00:02:16.372Z,0
2018-04-23T00:03:24.406Z,0
2018-04-23T00:04:32.471Z,0
2018-04-23T00:05:40.528Z,0
2018-04-23T00:06:48.602Z,0
2018-04-23T00:07:56.656Z,0
2018-04-23T00:09:08.980Z,0
2018-04-23T00:10:12.795Z,0
2018-04-23T00:11:20.846Z,0
2018-04-23T00:12:28.898Z,0
2018-04-23T00:13:36.977Z,0
2018-04-23T00:14:45.000Z,0
2018-04-23T00:15:53.095Z,0
2018-04-23T00:17:01.158Z,0
2018-04-23T00:18:09.213Z,0
2018-04-23T00:19:17.289Z,0
2018-04-23T00:20:25.324Z,0
2018-04-23T00:21:33.414Z,0
2018-04-23T00:22:41.460Z,0
2018-04-23T00:23:49.521Z,0
2018-04-23T00:24:57.579Z,0
2018-04-23T00:26:05.637Z,0
2018-04-23T00:27:13.713Z,0
2018-04-23T00:28:21.788Z,0
2018-04-23T00:29:29.845Z,0
2018-04-23T00:30:37.920Z,0
2018-04-23T00:31:45.972Z,0
2018-04-23T00:32:54.032Z,0
2018-04-23T00:34:02.093Z,0
2018-04-23T00:35:10.160Z,0
2018-04-23T00:36:18.220Z,0
2018-04-23T00:37:26.278Z,0
2018-04-23T00:38:34.350Z,0
2018-04-23T00:39:42.411Z,0
2018-04-23T00:40:50.470Z,0
2018-04-23T00:41:58.534Z,0
2018-04-23T00:43:06.584Z,0
2018-04-23T00:44:14.636Z,0
2018-04-23T00:45:22.755Z,0
2018-04-23T00:46:30.779Z,0
2018-04-23T00:47:38.839Z,0
2018-04-23T00:48:46.901Z,0
2018-04-23T00:49:54.937Z,0
2018-04-23T00:51:03.024Z,0
2018-04-23T00:52:11.088Z,0
2018-04-23T00:53:19.155Z,0
2018-04-23T00:54:27.214Z,0
2018-04-23T00:55:35.259Z,0
2018-04-23T00:56:43.337Z,0
2018-04-23T00:57:51.403Z,0
2018-04-23T00:58:59.473Z,0
2018-04-23T01:00:07.525Z,0
2018-04-23T01:01:15.578Z,0
2018-04-23T01:02:23.657Z,0
2018-04-23T01:03:31.708Z,0
2018-04-23T01:04:39.779Z,0
2018-04-23T01:05:47.849Z,0
2018-04-23T01:06:55.908Z,0
2018-04-23T01:08:03.972Z,0
2018-04-23T01:09:12.027Z,0
2018-04-23T01:10:20.103Z,0
2018-04-23T01:11:28.189Z,0
2018-04-23T01:12:36.216Z,0
2018-04-23T01:13:44.280Z,0
2018-04-23T01:14:52.339Z,0
2018-04-23T01:16:00.424Z,0
2018-04-23T01:17:08.471Z,0
2018-04-23T01:18:16.529Z,0
2018-04-23T01:19:24.588Z,0
2018-04-23T01:20:32.659Z,0
2018-04-23T01:21:40.724Z,0
2018-04-23T01:22:48.777Z,0
2018-04-23T01:23:56.849Z,0
2018-04-23T01:25:04.885Z,0
2018-04-23T01:26:12.973Z,0
2018-04-23T01:27:21.041Z,0
2018-04-23T01:28:29.090Z,0
2018-04-23T01:29:37.159Z,0
2018-04-23T01:30:45.195Z,0
2018-04-23T01:31:53.288Z,0
2018-04-23T01:33:01.351Z,0
2018-04-23T01:34:09.408Z,0
2018-04-23T01:35:17.460Z,0
2018-04-23T01:36:25.507Z,0
2018-04-23T01:37:33.588Z,0
2018-04-23T01:38:41.653Z,0
2018-04-23T01:39:49.715Z,0
2018-04-23T01:40:57.785Z,0
2018-04-23T01:42:05.873Z,0
2018-04-23T01:43:13.907Z,0
2018-04-23T01:44:21.962Z,0
2018-04-23T01:45:30.031Z,0
2018-04-23T01:46:38.086Z,0
2018-04-23T01:47:46.144Z,0
2018-04-23T01:48:54.215Z,0
2018-04-23T01:50:02.280Z,0
2018-04-23T01:51:10.349Z,0
2018-04-23T01:52:18.397Z,0
2018-04-23T01:53:26.472Z,0
2018-04-23T01:54:34.518Z,0
2018-04-23T01:55:42.591Z,0
2018-04-23T01:56:50.650Z,0
2018-04-23T01:57:58.714Z,0
2018-04-23T01:59:06.791Z,0
2018-04-23T02:00:14.811Z,0
2018-04-23T02:01:22.903Z,0
2018-04-23T02:02:30.957Z,0
2018-04-23T02:03:39.026Z,0
2018-04-23T02:04:47.095Z,0
2018-04-23T02:05:55.118Z,0
2018-04-23T02:07:03.218Z,0
2018-04-23T02:08:11.283Z,0
2018-04-23T02:09:19.350Z,0
2018-04-23T02:10:27.412Z,0
2018-04-23T02:11:35.445Z,0
2018-04-23T02:12:43.522Z,0
2018-04-23T02:13:51.588Z,0
2018-04-23T02:14:59.661Z,0
2018-04-23T02:16:07.754Z,0
2018-04-23T02:17:15.775Z,0
2018-04-23T02:18:23.835Z,0
2018-04-23T02:19:31.910Z,0
2018-04-23T02:20:39.973Z,0
2018-04-23T02:21:48.052Z,0
2018-04-23T02:22:56.140Z,0
2018-04-23T02:24:04.154Z,0
2018-04-23T02:25:12.210Z,0
2018-04-23T02:26:20.274Z,0
2018-04-23T02:27:28.341Z,0
2018-04-23T02:28:36.399Z,0
2018-04-23T02:29:44.515Z,0
2018-04-23T02:30:52.537Z,0
2018-04-23T02:32:00.599Z,0
2018-04-23T02:33:08.656Z,0
2018-04-23T02:34:16.708Z,0
2018-04-23T02:35:24.752Z,0
2018-04-23T02:36:32.842Z,0
2018-04-23T02:37:40.912Z,0
2018-04-23T02:38:48.970Z,0
2018-04-23T02:39:57.031Z,0
2018-04-23T02:41:05.070Z,0
2018-04-23T02:42:13.143Z,0
2018-04-23T02:43:21.205Z,0
2018-04-23T02:44:29.283Z,0
2018-04-23T02:45:37.351Z,0
2018-04-23T02:46:45.372Z,0
2018-04-23T02:47:53.463Z,0
2018-04-23T02:49:01.524Z,0
2018-04-23T02:50:09.590Z,0
2018-04-23T02:51:17.644Z,0
2018-04-23T02:52:25.720Z,0
2018-04-23T02:53:33.780Z,0
2018-04-23T02:54:41.836Z,0
2018-04-23T02:55:49.901Z,0
2018-04-23T02:56:57.962Z,0
2018-04-23T02:58:06.024Z,0
2018-04-23T02:59:14.092Z,0
2018-04-23T03:00:22.146Z,0
2018-04-23T03:01:30.216Z,0
2018-04-23T03:02:38.311Z,0
2018-04-23T03:03:46.333Z,0
2018-04-23T03:04:54.400Z,0
2018-04-23T03:06:02.445Z,0
2018-04-23T03:07:10.521Z,0
2018-04-23T03:08:18.578Z,0
2018-04-23T03:09:26.641Z,0
2018-04-23T03:10:34.687Z,0
2018-04-23T03:11:42.773Z,0
2018-04-23T03:12:50.840Z,0
2018-04-23T03:13:58.911Z,0
2018-04-23T03:15:06.946Z,0
2018-04-23T03:16:14.980Z,0
2018-04-23T03:17:23.071Z,0
2018-04-23T03:18:31.133Z,0
2018-04-23T03:19:39.203Z,0
2018-04-23T03:20:47.294Z,0
2018-04-23T03:21:55.298Z,0
2018-04-23T03:23:03.395Z,0
2018-04-23T03:24:11.443Z,0
2018-04-23T03:25:19.508Z,0
2018-04-23T03:26:27.569Z,0
2018-04-23T03:27:35.653Z,0
2018-04-23T03:28:43.688Z,0
2018-04-23T03:29:51.738Z,0
2018-04-23T03:30:59.821Z,0
2018-04-23T03:32:07.876Z,0
2018-04-23T03:33:15.942Z,0
2018-04-23T03:34:23.999Z,0
2018-04-23T03:35:32.076Z,0
2018-04-23T03:36:40.123Z,0
2018-04-23T03:37:48.187Z,0
2018-04-23T03:38:56.278Z,0
2018-04-23T03:40:04.313Z,0
2018-04-23T03:41:12.385Z,0
2018-04-23T03:42:20.441Z,0
2018-04-23T03:43:28.504Z,0
2018-04-23T03:44:36.555Z,0
2018-04-23T03:45:44.619Z,0
2018-04-23T03:46:52.683Z,0
2018-04-23T03:48:00.744Z,0
2018-04-23T03:49:08.799Z,0
2018-04-23T03:50:16.870Z,0
2018-04-23T03:51:24.900Z,0
2018-04-23T03:52:32.998Z,4
2018-04-23T03:53:41.048Z,4
2018-04-23T03:54:49.122Z,4
2018-04-23T03:55:57.176Z,4
2018-04-23T03:57:05.213Z,4
2018-04-23T03:58:13.309Z,8
2018-04-23T03:59:21.361Z,8
2018-04-23T04:00:29.432Z,8
2018-04-23T04:01:37.503Z,12
2018-04-23T04:02:45.541Z,12
2018-04-23T04:03:53.614Z,16
2018-04-23T04:05:01.670Z,16
2018-04-23T04:06:09.980Z,20
2018-04-23T04:07:17.939Z,24
2018-04-23T04:08:25.876Z,24
2018-04-23T04:09:33.931Z,28
2018-04-23T04:10:41.990Z,36
2018-04-23T04:11:50.053Z,44
2018-04-23T04:12:58.435Z,48
2018-04-23T04:14:06.166Z,56
2018-04-23T04:15:14.232Z,64
2018-04-23T04:16:22.295Z,76
2018-04-23T04:17:30.356Z,84
2018-04-23T04:18:38.425Z,96
2018-04-23T04:19:46.478Z,108
2018-04-23T04:20:54.538Z,124
2018-04-23T04:22:02.613Z,136
2018-04-23T04:23:10.669Z,152
2018-04-23T04:24:18.713Z,172
2018-04-23T04:25:26.793Z,192
2018-04-23T04:26:34.823Z,208
2018-04-23T04:27:42.903Z,232
2018-04-23T04:28:50.977Z,252
2018-04-23T04:29:59.040Z,276
2018-04-23T04:31:07.095Z,304
2018-04-23T04:32:15.135Z,340
2018-04-23T04:33:23.231Z,368
2018-04-23T04:34:31.286Z,400
2018-04-23T04:35:39.503Z,440
2018-04-23T04:36:47.417Z,476
2018-04-23T04:37:55.456Z,508
2018-04-23T04:39:03.571Z,548
2018-04-23T04:40:11.592Z,584
2018-04-23T04:41:19.661Z,620
2018-04-23T04:42:27.727Z,652
2018-04-23T04:43:35.773Z,680
2018-04-23T04:44:43.849Z,708
2018-04-23T04:45:51.922Z,732
2018-04-23T04:46:59.975Z,764
2018-04-23T04:48:08.037Z,800
2018-04-23T04:49:16.084Z,836
2018-04-23T04:50:24.148Z,872
2018-04-23T04:51:32.209Z,904
2018-04-23T04:52:40.285Z,940
2018-04-23T04:53:48.324Z,972
2018-04-23T04:54:56.404Z,1000
2018-04-23T04:56:04.459Z,1008
2018-04-23T04:57:12.529Z,1048
2018-04-23T04:58:20.606Z,1108
2018-04-23T04:59:28.657Z,1188
2018-04-23T05:00:37.278Z,1256
2018-04-23T05:01:44.875Z,1316
2018-04-23T05:02:53.227Z,1368
2018-04-23T05:04:00.905Z,1432
2018-04-23T05:05:08.958Z,1496
2018-04-23T05:06:17.021Z,1544
2018-04-23T05:07:25.059Z,1600
2018-04-23T05:08:33.141Z,1656
2018-04-23T05:09:41.217Z,1704
2018-04-23T05:10:49.267Z,1740
2018-04-23T05:11:57.338Z,1764
2018-04-23T05:13:05.367Z,1800
2018-04-23T05:14:13.461Z,1840
2018-04-23T05:15:21.529Z,1888
2018-04-23T05:16:29.603Z,1952
2018-04-23T05:17:37.645Z,2024
2018-04-23T05:18:45.709Z,2120
2018-04-23T05:19:53.770Z,2224
2018-04-23T05:21:01.832Z,2332
2018-04-23T05:22:09.892Z,2440
2018-04-23T05:23:17.954Z,2536
2018-04-23T05:24:26.059Z,2608
2018-04-23T05:25:34.079Z,2640
2018-04-23T05:26:42.138Z,2684
2018-04-23T05:27:50.212Z,2740
2018-04-23T05:28:58.268Z,2812
2018-04-23T05:30:06.313Z,2868
2018-04-23T05:31:14.400Z,2936
2018-04-23T05:32:22.449Z,3008
2018-04-23T05:33:30.530Z,3096
2018-04-23T05:34:38.591Z,3196
2018-04-23T05:35:46.651Z,3308
2018-04-23T05:36:54.692Z,3428
2018-04-23T05:38:02.763Z,3560
2018-04-23T05:39:10.827Z,3692
2018-04-23T05:40:18.878Z,3840
2018-04-23T05:41:26.986Z,4008
2018-04-23T05:42:35.027Z,4204
2018-04-23T05:43:43.078Z,4420
2018-04-23T05:44:51.145Z,4588
2018-04-23T05:45:59.192Z,4700
2018-04-23T05:47:07.269Z,4824
2018-04-23T05:48:15.295Z,5012
2018-04-23T05:49:23.387Z,5360
2018-04-23T05:50:31.451Z,5364
2018-04-23T05:51:39.512Z,5356
2018-04-23T05:52:47.588Z,5292
2018-04-23T05:53:55.625Z,5384
2018-04-23T05:55:03.715Z,5548
2018-04-23T05:56:11.780Z,5792
2018-04-23T05:57:19.817Z,6192
2018-04-23T05:58:27.895Z,6648
2018-04-23T05:59:35.949Z,7344
2018-04-23T06:00:44.016Z,7432
2018-04-23T06:01:52.091Z,8004
2018-04-23T06:03:00.225Z,8840
2018-04-23T06:04:08.221Z,8560
2018-04-23T06:05:16.304Z,9480
2018-04-23T06:06:24.340Z,12476
2018-04-23T06:07:32.408Z,12052
2018-04-23T06:08:40.496Z,9816
2018-04-23T06:09:48.528Z,11412
2018-04-23T06:10:56.594Z,14948
2018-04-23T06:12:04.627Z,12080
2018-04-23T06:13:12.719Z,10564
2018-04-23T06:14:20.821Z,11560
2018-04-23T06:15:28.848Z,11368
2018-04-23T06:16:36.926Z,10708
2018-04-23T06:17:44.963Z,12892
2018-04-23T06:18:53.057Z,11028
2018-04-23T06:20:01.109Z,9456
2018-04-23T06:21:09.171Z,10356
2018-04-23T06:22:17.235Z,10144
2018-04-23T06:23:25.281Z,10764
2018-04-23T06:24:33.365Z,11160
2018-04-23T06:25:41.457Z,10468
2018-04-23T06:26:49.504Z,10804
2018-04-23T06:27:57.569Z,10728
2018-04-23T06:29:05.638Z,12216
2018-04-23T06:30:13.696Z,12872
2018-04-23T06:31:21.767Z,10916
2018-04-23T06:32:29.844Z,10156
2018-04-23T06:33:37.903Z,8892
2018-04-23T06:34:45.974Z,10076
2018-04-23T06:35:54.028Z,7076
2018-04-23T06:37:02.136Z,7268
2018-04-23T06:38:10.150Z,7704
2018-04-23T06:39:18.240Z,9548
2018-04-23T06:40:26.292Z,12320
2018-04-23T06:41:34.359Z,12452
2018-04-23T06:42:42.413Z,9816
2018-04-23T06:43:50.501Z,8988
2018-04-23T06:44:58.553Z,10260
2018-04-23T06:46:06.661Z,9960
2018-04-23T06:47:14.673Z,10000
2018-04-23T06:48:22.755Z,8916
2018-04-23T06:49:30.831Z,8236
2018-04-23T06:50:38.894Z,8244
2018-04-23T06:51:46.964Z,8900
2018-04-23T06:52:55.004Z,9140
2018-04-23T06:54:03.111Z,9280
2018-04-23T06:55:11.161Z,9572
2018-04-23T06:56:19.222Z,9084
2018-04-23T06:57:27.293Z,8876
2018-04-23T06:58:35.340Z,9028
2018-04-23T06:59:43.420Z,9232
2018-04-23T07:00:51.493Z,9512
2018-04-23T07:01:59.569Z,9688
2018-04-23T07:03:07.626Z,10076
2018-04-23T07:04:15.688Z,9964
2018-04-23T07:05:23.761Z,11840
2018-04-23T07:06:31.819Z,11732
2018-04-23T07:07:39.890Z,10904
2018-04-23T07:08:47.971Z,11412
2018-04-23T07:09:56.022Z,11992
2018-04-23T07:11:04.096Z,12136
2018-04-23T07:12:12.160Z,13584
2018-04-23T07:13:20.238Z,16832
2018-04-23T07:14:28.309Z,14252
2018-04-23T07:15:36.372Z,14804
2018-04-23T07:16:44.433Z,16268
2018-04-23T07:17:52.497Z,20640
2018-04-23T07:19:00.572Z,27008
2018-04-23T07:20:08.636Z,27456
2018-04-23T07:21:16.744Z,27296
2018-04-23T07:22:24.750Z,26272
2018-04-23T07:23:32.846Z,28960
2018-04-23T07:24:40.912Z,28192
2018-04-23T07:25:48.989Z,18016
2018-04-23T07:26:57.057Z,24928
2018-04-23T07:28:05.107Z,16616
2018-04-23T07:29:13.191Z,16764
2018-04-23T07:30:21.256Z,16800
2018-04-23T07:31:29.329Z,21472
2018-04-23T07:32:37.410Z,17600
2018-04-23T07:33:45.446Z,21760
2018-04-23T07:34:53.566Z,15396
2018-04-23T07:36:01.621Z,14860
2018-04-23T07:37:09.676Z,14360
2018-04-23T07:38:17.752Z,14612
2018-04-23T07:39:25.817Z,19744
2018-04-23T07:40:33.916Z,20608
2018-04-23T07:41:41.965Z,19744
2018-04-23T07:42:50.039Z,20864
2018-04-23T07:43:58.116Z,25952
2018-04-23T07:45:06.176Z,25440
2018-04-23T07:46:14.239Z,21536
2018-04-23T07:47:22.332Z,38176
2018-04-23T07:48:30.402Z,44512
2018-04-23T07:49:38.461Z,32928
2018-04-23T07:50:46.528Z,40416
2018-04-23T07:51:54.592Z,49536
2018-04-23T07:53:02.680Z,42368
2018-04-23T07:54:10.761Z,34048
2018-04-23T07:55:18.822Z,54144
2018-04-23T07:56:26.888Z,48736
2018-04-23T07:57:34.943Z,44352
2018-04-23T07:58:43.043Z,43776
2018-04-23T07:59:51.116Z,46208
2018-04-23T08:00:59.182Z,44864
2018-04-23T08:02:07.261Z,39776
2018-04-23T08:03:15.312Z,39552
2018-04-23T08:04:23.413Z,37408
2018-04-23T08:05:31.476Z,45088
2018-04-23T08:06:39.557Z,49728
2018-04-23T08:07:47.625Z,48352
2018-04-23T08:08:55.709Z,50496
2018-04-23T08:10:03.781Z,48832
2018-04-23T08:11:11.855Z,40960
2018-04-23T08:12:19.942Z,20160
2018-04-23T08:13:28.012Z,35520
2018-04-23T08:14:36.073Z,39808
2018-04-23T08:15:44.145Z,45632
2018-04-23T08:16:52.230Z,40448
2018-04-23T08:18:00.282Z,37376
2018-04-23T08:19:08.374Z,50912
2018-04-23T08:20:16.457Z,53920
2018-04-23T08:21:24.514Z,52736
2018-04-23T08:22:32.598Z,50560
2018-04-23T08:23:40.682Z,49248
2018-04-23T08:24:48.746Z,47776
2018-04-23T08:25:56.827Z,48192
2018-04-23T08:27:04.911Z,54688
2018-04-23T08:28:12.990Z,54880
2018-04-23T08:29:21.052Z,56704
2018-04-23T08:30:29.136Z,59232
2018-04-23T08:31:37.223Z,61664
2018-04-23T08:32:45.263Z,61984
2018-04-23T08:33:53.359Z,61152
2018-04-23T08:35:01.435Z,46528
2018-04-23T08:36:09.518Z,19744
2018-04-23T08:37:17.592Z,42496
2018-04-23T08:38:25.667Z,58272
2018-04-23T08:39:33.750Z,30656
2018-04-23T08:40:41.823Z,27200
2018-04-23T08:41:49.904Z,31552
2018-04-23T08:42:57.984Z,53280
2018-04-23T08:44:06.053Z,45216
2018-04-23T08:45:14.133Z,57152
2018-04-23T08:46:22.209Z,56544
2018-04-23T08:47:30.297Z,51328
2018-04-23T08:48:38.377Z,54976
2018-04-23T08:49:46.436Z,46784
2018-04-23T08:50:54.516Z,29472
2018-04-23T08:52:02.588Z,50816
2018-04-23T08:53:10.687Z,38848
2018-04-23T08:54:18.753Z,29664
2018-04-23T08:55:26.842Z,56512
2018-04-23T08:56:34.882Z,36096
2018-04-23T08:57:42.996Z,21632
2018-04-23T08:58:51.056Z,17280
2018-04-23T08:59:59.178Z,16520
2018-04-23T09:01:07.219Z,16196
2018-04-23T09:02:15.257Z,15300
2018-04-23T09:03:23.362Z,14720
2018-04-23T09:04:31.437Z,14296
2018-04-23T09:05:39.528Z,15220
2018-04-23T09:06:47.589Z,15796
2018-04-23T09:07:55.701Z,16088
2018-04-23T09:09:03.733Z,16724
2018-04-23T09:10:11.813Z,18304
2018-04-23T09:11:19.887Z,19008
2018-04-23T09:12:27.954Z,19264
2018-04-23T09:13:36.028Z,19584
2018-04-23T09:14:44.101Z,19424
2018-04-23T09:15:52.173Z,19328
2018-04-23T09:17:00.261Z,18880
2018-04-23T09:18:08.317Z,19264
2018-04-23T09:19:16.402Z,19296
2018-04-23T09:20:24.467Z,19040
2018-04-23T09:21:32.544Z,18688
2018-04-23T09:22:40.624Z,18304
2018-04-23T09:23:48.695Z,18080
2018-04-23T09:24:56.776Z,17760
2018-04-23T09:26:04.808Z,17472
2018-04-23T09:27:12.905Z,17248
2018-04-23T09:28:20.980Z,17280
2018-04-23T09:29:29.059Z,16708
2018-04-23T09:30:37.147Z,16456
2018-04-23T09:31:45.174Z,16436
2018-04-23T09:32:53.286Z,16504
2018-04-23T09:34:01.355Z,16960
2018-04-23T09:35:09.423Z,17344
2018-04-23T09:36:17.495Z,17568
2018-04-23T09:37:25.566Z,18048
2018-04-23T09:38:33.634Z,18528
2018-04-23T09:39:41.713Z,19104
2018-04-23T09:40:49.778Z,19232
2018-04-23T09:41:57.857Z,19840
2018-04-23T09:43:05.931Z,20448
2018-04-23T09:44:14.013Z,20416
2018-04-23T09:45:22.083Z,20960
2018-04-23T09:46:30.151Z,21888
2018-04-23T09:47:38.215Z,22592
2018-04-23T09:48:46.286Z,23008
2018-04-23T09:49:54.370Z,22752
2018-04-23T09:51:02.450Z,22496
2018-04-23T09:52:10.521Z,22624
2018-04-23T09:53:18.585Z,22912
2018-04-23T09:54:26.665Z,22624
2018-04-23T09:55:34.717Z,22560
2018-04-23T09:56:42.806Z,21856
2018-04-23T09:57:50.881Z,21600
2018-04-23T09:58:58.958Z,21600
2018-04-23T10:00:07.032Z,22208
2018-04-23T10:01:15.064Z,23328
2018-04-23T10:02:23.173Z,23360
2018-04-23T10:03:31.247Z,22976
2018-04-23T10:04:39.328Z,23872
2018-04-23T10:05:47.395Z,23776
2018-04-23T10:06:55.437Z,22336
2018-04-23T10:08:03.567Z,20544
2018-04-23T10:09:11.611Z,18112
2018-04-23T10:10:19.693Z,16896
2018-04-23T10:11:27.772Z,15224
2018-04-23T10:12:35.831Z,15128
2018-04-23T10:13:43.935Z,17856
2018-04-23T10:14:51.986Z,18624
2018-04-23T10:16:00.059Z,16928
2018-04-23T10:17:08.125Z,14728
2018-04-23T10:18:16.210Z,14084
2018-04-23T10:19:24.290Z,14784
2018-04-23T10:20:32.390Z,16100
2018-04-23T10:21:40.433Z,16532
2018-04-23T10:22:48.514Z,15564
2018-04-23T10:23:56.567Z,16896
2018-04-23T10:25:04.618Z,19424
2018-04-23T10:26:12.724Z,20256
2018-04-23T10:27:20.802Z,19168
2018-04-23T10:28:28.867Z,19936
2018-04-23T10:29:36.973Z,18912
2018-04-23T10:30:44.981Z,17728
2018-04-23T10:31:53.088Z,15604
2018-04-23T10:33:01.165Z,13976
2018-04-23T10:34:09.227Z,11764
2018-04-23T10:35:17.342Z,11332
2018-04-23T10:36:25.336Z,13396
2018-04-23T10:37:33.439Z,16180
2018-04-23T10:38:41.517Z,18944
2018-04-23T10:39:49.608Z,21216
2018-04-23T10:40:57.680Z,22240
2018-04-23T10:42:05.743Z,21824
2018-04-23T10:43:13.810Z,20864
2018-04-23T10:44:21.887Z,20416
2018-04-23T10:45:29.978Z,20736
2018-04-23T10:46:38.031Z,20960
2018-04-23T10:47:46.095Z,20896
2018-04-23T10:48:54.178Z,20704
2018-04-23T10:50:02.241Z,19872
2018-04-23T10:51:10.320Z,19296
2018-04-23T10:52:18.392Z,19328
2018-04-23T10:53:26.460Z,19584
2018-04-23T10:54:34.545Z,19392
2018-04-23T10:55:42.626Z,19232
2018-04-23T10:56:50.695Z,18912
2018-04-23T10:57:58.754Z,19104
2018-04-23T10:59:06.832Z,18560
2018-04-23T11:00:14.881Z,18080
2018-04-23T11:01:22.988Z,17536
2018-04-23T11:02:31.067Z,16688
2018-04-23T11:03:39.118Z,16896
2018-04-23T11:04:47.212Z,17888
2018-04-23T11:05:55.239Z,18944
2018-04-23T11:07:03.362Z,19648
2018-04-23T11:08:11.429Z,20448
2018-04-23T11:09:19.483Z,20288
2018-04-23T11:10:27.564Z,18464
2018-04-23T11:11:35.636Z,16276
2018-04-23T11:12:43.704Z,14580
2018-04-23T11:13:51.787Z,13020
2018-04-23T11:14:59.872Z,11676
2018-04-23T11:16:07.940Z,10248
2018-04-23T11:17:16.007Z,8700
2018-04-23T11:18:24.075Z,7488
2018-04-23T11:19:32.166Z,6868
2018-04-23T11:20:40.211Z,6820
2018-04-23T11:21:48.283Z,6504
2018-04-23T11:22:56.364Z,5952
2018-04-23T11:24:04.440Z,4952
2018-04-23T11:25:12.513Z,3696
2018-04-23T11:26:20.598Z,2608
2018-04-23T11:27:28.658Z,2024
2018-04-23T11:28:36.718Z,1892
2018-04-23T11:29:44.782Z,2168
2018-04-23T11:30:52.876Z,2460
2018-04-23T11:32:00.940Z,2708
2018-04-23T11:33:09.022Z,3632
2018-04-23T11:34:17.086Z,5184
2018-04-23T11:35:25.128Z,7236
2018-04-23T11:36:33.231Z,8476
2018-04-23T11:37:41.311Z,7460
2018-04-23T11:38:49.429Z,5416
2018-04-23T11:39:57.455Z,3292
2018-04-23T11:41:05.510Z,1992
2018-04-23T11:42:13.592Z,1756
2018-04-23T11:43:21.652Z,2388
2018-04-23T11:44:29.729Z,3500
2018-04-23T11:45:37.809Z,4700
2018-04-23T11:46:45.867Z,5544
2018-04-23T11:47:53.928Z,6452
2018-04-23T11:49:02.010Z,8116
2018-04-23T11:50:10.080Z,10244
2018-04-23T11:51:18.154Z,12000
2018-04-23T11:52:26.205Z,13308
2018-04-23T11:53:34.280Z,15876
2018-04-23T11:54:42.354Z,16832
2018-04-23T11:55:50.409Z,18048
2018-04-23T11:56:58.462Z,18144
2018-04-23T11:58:06.531Z,18592
2018-04-23T11:59:14.616Z,18464
2018-04-23T12:00:22.682Z,18048
2018-04-23T12:01:30.781Z,18432
2018-04-23T12:02:38.812Z,20384
2018-04-23T12:03:46.887Z,21152
2018-04-23T12:04:54.925Z,20416
2018-04-23T12:06:03.023Z,19040
2018-04-23T12:07:11.081Z,16804
2018-04-23T12:08:19.146Z,14804
2018-04-23T12:09:27.220Z,12920
2018-04-23T12:10:35.258Z,11960
2018-04-23T12:11:43.347Z,12340
2018-04-23T12:12:51.433Z,13108
2018-04-23T12:13:59.502Z,13632
2018-04-23T12:15:07.553Z,13896
2018-04-23T12:16:15.622Z,14032
2018-04-23T12:17:23.701Z,13736
2018-04-23T12:18:31.748Z,13084
2018-04-23T12:19:39.807Z,12596
2018-04-23T12:20:47.920Z,12808
2018-04-23T12:21:55.943Z,13928
2018-04-23T12:23:04.018Z,14956
2018-04-23T12:24:12.088Z,14864
2018-04-23T12:25:20.161Z,14800
2018-04-23T12:26:28.216Z,16120
2018-04-23T12:27:36.276Z,17248
2018-04-23T12:28:44.360Z,16776
2018-04-23T12:29:52.420Z,15700
2018-04-23T12:31:00.476Z,13964
2018-04-23T12:32:08.535Z,12980
2018-04-23T12:33:16.614Z,12756
2018-04-23T12:34:24.667Z,13920
2018-04-23T12:35:32.745Z,14684
2018-04-23T12:36:40.812Z,14912
2018-04-23T12:37:48.886Z,16608
2018-04-23T12:38:56.943Z,19072
2018-04-23T12:40:04.996Z,21760
2018-04-23T12:41:13.090Z,23392
2018-04-23T12:42:21.165Z,23296
2018-04-23T12:43:29.211Z,22624
2018-04-23T12:44:37.291Z,21920
2018-04-23T12:45:45.322Z,21504
2018-04-23T12:46:53.408Z,21888
2018-04-23T12:48:01.487Z,22080
2018-04-23T12:49:09.558Z,21728
2018-04-23T12:50:17.622Z,20736
2018-04-23T12:51:25.692Z,20096
2018-04-23T12:52:33.755Z,19392
2018-04-23T12:53:41.815Z,19936
2018-04-23T12:54:49.895Z,20192
2018-04-23T12:55:57.950Z,19776
2018-04-23T12:57:06.053Z,19264
2018-04-23T12:58:14.090Z,19424
2018-04-23T12:59:22.157Z,18816
2018-04-23T13:00:30.229Z,18144
2018-04-23T13:01:38.309Z,18304
2018-04-23T13:02:46.373Z,18848
2018-04-23T13:03:54.439Z,19840
2018-04-23T13:05:02.496Z,20192
2018-04-23T13:06:10.571Z,20480
2018-04-23T13:07:18.634Z,20000
2018-04-23T13:08:26.695Z,19840
2018-04-23T13:09:34.748Z,19712
2018-04-23T13:10:42.881Z,18688
2018-04-23T13:11:50.906Z,18304
2018-04-23T13:12:58.986Z,18112
2018-04-23T13:14:07.054Z,17792
2018-04-23T13:15:15.088Z,17728
2018-04-23T13:16:23.179Z,16688
2018-04-23T13:17:31.247Z,15484
2018-04-23T13:18:39.326Z,14884
2018-04-23T13:19:47.395Z,14564
2018-04-23T13:20:55.446Z,14468
2018-04-23T13:22:03.528Z,14216
2018-04-23T13:23:11.595Z,13996
2018-04-23T13:24:19.667Z,13816
2018-04-23T13:25:27.728Z,13584
2018-04-23T13:26:35.798Z,12984
2018-04-23T13:27:43.864Z,12328
2018-04-23T13:28:51.933Z,12204
2018-04-23T13:30:00.011Z,12092
2018-04-23T13:31:08.083Z,11984
2018-04-23T13:32:16.144Z,11700
2018-04-23T13:33:24.209Z,11556
2018-04-23T13:34:32.291Z,11476
2018-04-23T13:35:40.360Z,11284
2018-04-23T13:36:48.440Z,10988
2018-04-23T13:37:56.501Z,10272
2018-04-23T13:39:04.553Z,9760
2018-04-23T13:40:12.622Z,9308
2018-04-23T13:41:20.709Z,8988
2018-04-23T13:42:28.805Z,8672
2018-04-23T13:43:36.822Z,8568
2018-04-23T13:44:44.872Z,8488
2018-04-23T13:45:52.971Z,8272
2018-04-23T13:47:01.028Z,8148
2018-04-23T13:48:09.098Z,7892
2018-04-23T13:49:17.175Z,7252
2018-04-23T13:50:25.214Z,6908
2018-04-23T13:51:33.314Z,6680
2018-04-23T13:52:41.379Z,6588
2018-04-23T13:53:49.456Z,6756
2018-04-23T13:54:57.511Z,6488
2018-04-23T13:56:05.580Z,6600
2018-04-23T13:57:13.653Z,6620
2018-04-23T13:58:21.718Z,6736
2018-04-23T13:59:29.797Z,6440
2018-04-23T14:00:37.861Z,6684
2018-04-23T14:01:45.937Z,6864
2018-04-23T14:02:53.990Z,6884
2018-04-23T14:04:02.054Z,7088
2018-04-23T14:05:10.123Z,7284
2018-04-23T14:06:18.202Z,7196
2018-04-23T14:07:26.265Z,7356
2018-04-23T14:08:34.335Z,7480
2018-04-23T14:09:42.404Z,7392
2018-04-23T14:10:50.466Z,7476
2018-04-23T14:11:58.518Z,7652
2018-04-23T14:13:06.596Z,7780
2018-04-23T14:14:14.654Z,7804
2018-04-23T14:15:22.730Z,7724
2018-04-23T14:16:30.802Z,7964
2018-04-23T14:17:38.923Z,8288
2018-04-23T14:18:46.944Z,8328
2018-04-23T14:19:54.974Z,7916
2018-04-23T14:21:03.063Z,7592
2018-04-23T14:22:11.135Z,7440
2018-04-23T14:23:19.206Z,7400
2018-04-23T14:24:27.275Z,7348
2018-04-23T14:25:35.320Z,7512
2018-04-23T14:26:43.415Z,7764
2018-04-23T14:27:51.466Z,7484
2018-04-23T14:28:59.544Z,7256
2018-04-23T14:30:07.621Z,7328
2018-04-23T14:31:15.686Z,7408
2018-04-23T14:32:23.766Z,7568
2018-04-23T14:33:31.816Z,7912
2018-04-23T14:34:39.885Z,8196
2018-04-23T14:35:47.954Z,8232
2018-04-23T14:36:56.018Z,8228
2018-04-23T14:38:04.080Z,7996
2018-04-23T14:39:12.156Z,7900
2018-04-23T14:40:20.242Z,7656
2018-04-23T14:41:28.293Z,7164
2018-04-23T14:42:36.365Z,6720
2018-04-23T14:43:44.434Z,6332
2018-04-23T14:44:52.489Z,6024
2018-04-23T14:46:00.561Z,5904
2018-04-23T14:47:08.636Z,5884
2018-04-23T14:48:16.695Z,5780
2018-04-23T14:49:24.747Z,5756
2018-04-23T14:50:32.828Z,5920
2018-04-23T14:51:40.899Z,6176
2018-04-23T14:52:48.969Z,6636
2018-04-23T14:53:57.025Z,7100
2018-04-23T14:55:05.071Z,7852
2018-04-23T14:56:13.193Z,7888
2018-04-23T14:57:21.228Z,8396
2018-04-23T14:58:29.290Z,9148
2018-04-23T14:59:37.374Z,9408
2018-04-23T15:00:45.423Z,9676
2018-04-23T15:01:53.501Z,10144
2018-04-23T15:03:01.571Z,10360
2018-04-23T15:04:09.638Z,10852
2018-04-23T15:05:17.708Z,10836
2018-04-23T15:06:25.787Z,10404
2018-04-23T15:07:33.849Z,9932
2018-04-23T15:08:41.901Z,9620
2018-04-23T15:09:49.974Z,9344
2018-04-23T15:10:58.050Z,9116
2018-04-23T15:12:06.097Z,8804
2018-04-23T15:13:14.170Z,8536
2018-04-23T15:14:22.248Z,8328
2018-04-23T15:15:30.330Z,7968
2018-04-23T15:16:38.390Z,7836
2018-04-23T15:17:46.460Z,7820
2018-04-23T15:18:54.512Z,7676